sensor_id;sensor_type;location;lat;lon;timestamp;P1;durP1;ratioP1;P2;durP2;ratioP2
16800;SDS011;8518;53.236;10.384;2023-08-01T00:00:04;3.37;;;2.93;;
16800;SDS011;8518;53.236;10.384;2023-08-01T00:02:32;4.50;;;2.60;;
16800;SDS011;8518;53.236;10.384;2023-08-01T00:04:58;2.53;;;2.33;;
16800;SDS011;8518;53.236;10.384;2023-08-01T00:07:26;2.70;;;1.67;;
16800;SDS011;8518;53.236;10.384;2023-08-01T00:09:53;1.80;;;1.70;;
16800;SDS011;8518;53.236;10.384;2023-08-01T00:12:18;1.70;;;1.40;;
16800;SDS011;8518;53.236;10.384;2023-08-01T00:14:44;1.57;;;1.47;;
16800;SDS011;8518;53.236;10.384;2023-08-01T00:20:37;1.40;;;1.10;;
16800;SDS011;8518;53.236;10.384;2023-08-01T00:23:04;1.90;;;1.40;;
16800;SDS011;8518;53.236;10.384;2023-08-01T00:28:52;1.30;;;1.20;;
16800;SDS011;8518;53.236;10.384;2023-08-01T00:31:18;1.43;;;1.10;;
16800;SDS011;8518;53.236;10.384;2023-08-01T00:33:46;0.80;;;0.80;;
16800;SDS011;8518;53.236;10.384;2023-08-01T00:39:37;1.27;;;0.97;;
16800;SDS011;8518;53.236;10.384;2023-08-01T00:42:03;1.60;;;0.93;;
16800;SDS011;8518;53.236;10.384;2023-08-01T00:44:28;1.20;;;0.87;;
16800;SDS011;8518;53.236;10.384;2023-08-01T00:50:19;0.80;;;0.80;;
16800;SDS011;8518;53.236;10.384;2023-08-01T00:52:46;1.03;;;0.90;;
16800;SDS011;8518;53.236;10.384;2023-08-01T00:55:12;1.60;;;1.50;;
16800;SDS011;8518;53.236;10.384;2023-08-01T00:57:42;1.60;;;1.40;;
16800;SDS011;8518;53.236;10.384;2023-08-01T01:00:09;1.67;;;1.50;;
16800;SDS011;8518;53.236;10.384;2023-08-01T01:02:38;2.00;;;1.57;;
16800;SDS011;8518;53.236;10.384;2023-08-01T01:05:04;2.63;;;2.37;;
16800;SDS011;8518;53.236;10.384;2023-08-01T01:07:31;1.80;;;1.70;;
16800;SDS011;8518;53.236;10.384;2023-08-01T01:09:59;2.20;;;2.03;;
16800;SDS011;8518;53.236;10.384;2023-08-01T01:12:25;3.37;;;2.10;;
16800;SDS011;8518;53.236;10.384;2023-08-01T01:14:51;3.10;;;2.57;;
16800;SDS011;8518;53.236;10.384;2023-08-01T01:20:38;2.60;;;2.40;;
16800;SDS011;8518;53.236;10.384;2023-08-01T01:23:04;3.27;;;2.97;;
16800;SDS011;8518;53.236;10.384;2023-08-01T01:28:54;3.30;;;3.00;;
16800;SDS011;8518;53.236;10.384;2023-08-01T01:31:20;3.17;;;2.87;;
16800;SDS011;8518;53.236;10.384;2023-08-01T01:33:49;3.30;;;3.00;;
16800;SDS011;8518;53.236;10.384;2023-08-01T01:39:37;3.47;;;3.07;;
16800;SDS011;8518;53.236;10.384;2023-08-01T01:42:03;3.30;;;3.00;;
16800;SDS011;8518;53.236;10.384;2023-08-01T01:44:29;3.07;;;2.77;;
16800;SDS011;8518;53.236;10.384;2023-08-01T01:50:19;2.87;;;2.67;;
16800;SDS011;8518;53.236;10.384;2023-08-01T01:52:48;3.37;;;3.03;;
16800;SDS011;8518;53.236;10.384;2023-08-01T01:55:13;4.80;;;3.10;;
16800;SDS011;8518;53.236;10.384;2023-08-01T01:57:39;3.27;;;3.00;;
16800;SDS011;8518;53.236;10.384;2023-08-01T02:00:05;3.23;;;3.00;;
16800;SDS011;8518;53.236;10.384;2023-08-01T02:02:35;4.97;;;3.10;;
16800;SDS011;8518;53.236;10.384;2023-08-01T02:05:01;4.87;;;3.20;;
16800;SDS011;8518;53.236;10.384;2023-08-01T02:07:29;3.67;;;3.20;;
16800;SDS011;8518;53.236;10.384;2023-08-01T02:09:54;4.37;;;3.33;;
16800;SDS011;8518;53.236;10.384;2023-08-01T02:12:20;4.27;;;3.13;;
16800;SDS011;8518;53.236;10.384;2023-08-01T02:14:48;6.87;;;3.93;;
16800;SDS011;8518;53.236;10.384;2023-08-01T02:20:35;3.40;;;3.17;;
16800;SDS011;8518;53.236;10.384;2023-08-01T02:23:01;3.97;;;3.60;;
16800;SDS011;8518;53.236;10.384;2023-08-01T02:28:50;3.67;;;3.37;;
16800;SDS011;8518;53.236;10.384;2023-08-01T02:31:16;6.17;;;3.17;;
16800;SDS011;8518;53.236;10.384;2023-08-01T02:33:42;3.77;;;3.37;;
16800;SDS011;8518;53.236;10.384;2023-08-01T02:39:29;3.70;;;3.40;;
16800;SDS011;8518;53.236;10.384;2023-08-01T02:41:56;3.90;;;3.60;;
16800;SDS011;8518;53.236;10.384;2023-08-01T02:44:22;3.53;;;3.00;;
16800;SDS011;8518;53.236;10.384;2023-08-01T02:50:09;3.67;;;3.37;;
16800;SDS011;8518;53.236;10.384;2023-08-01T02:55:57;3.90;;;3.40;;
16800;SDS011;8518;53.236;10.384;2023-08-01T02:58:23;3.53;;;3.20;;
16800;SDS011;8518;53.236;10.384;2023-08-01T03:00:55;5.37;;;3.77;;
16800;SDS011;8518;53.236;10.384;2023-08-01T03:03:21;3.77;;;3.27;;
16800;SDS011;8518;53.236;10.384;2023-08-01T03:05:47;3.23;;;2.93;;
16800;SDS011;8518;53.236;10.384;2023-08-01T03:08:12;5.23;;;3.10;;
16800;SDS011;8518;53.236;10.384;2023-08-01T03:10:38;3.20;;;2.90;;
16800;SDS011;8518;53.236;10.384;2023-08-01T03:13:04;3.33;;;3.03;;
16800;SDS011;8518;53.236;10.384;2023-08-01T03:18:52;3.97;;;3.57;;
16800;SDS011;8518;53.236;10.384;2023-08-01T03:21:20;3.63;;;3.33;;
16800;SDS011;8518;53.236;10.384;2023-08-01T03:23:46;3.40;;;2.87;;
16800;SDS011;8518;53.236;10.384;2023-08-01T03:29:33;4.07;;;2.97;;
16800;SDS011;8518;53.236;10.384;2023-08-01T03:32:02;7.67;;;2.90;;
16800;SDS011;8518;53.236;10.384;2023-08-01T03:34:28;3.60;;;2.90;;
16800;SDS011;8518;53.236;10.384;2023-08-01T03:40:15;3.97;;;2.97;;
16800;SDS011;8518;53.236;10.384;2023-08-01T03:42:41;3.43;;;3.10;;
16800;SDS011;8518;53.236;10.384;2023-08-01T03:45:07;5.43;;;2.80;;
16800;SDS011;8518;53.236;10.384;2023-08-01T03:47:33;3.03;;;2.67;;
16800;SDS011;8518;53.236;10.384;2023-08-01T03:49:59;3.10;;;2.80;;
16800;SDS011;8518;53.236;10.384;2023-08-01T03:52:24;5.07;;;3.47;;
16800;SDS011;8518;53.236;10.384;2023-08-01T03:54:54;3.77;;;3.10;;
16800;SDS011;8518;53.236;10.384;2023-08-01T04:00:42;4.10;;;2.97;;
16800;SDS011;8518;53.236;10.384;2023-08-01T04:03:08;5.77;;;3.07;;
16800;SDS011;8518;53.236;10.384;2023-08-01T04:05:34;3.50;;;3.20;;
16800;SDS011;8518;53.236;10.384;2023-08-01T04:08:03;5.30;;;3.00;;
16800;SDS011;8518;53.236;10.384;2023-08-01T04:10:29;6.23;;;3.43;;
16800;SDS011;8518;53.236;10.384;2023-08-01T04:12:54;3.60;;;3.17;;
16800;SDS011;8518;53.236;10.384;2023-08-01T04:15:20;4.80;;;3.23;;
16800;SDS011;8518;53.236;10.384;2023-08-01T04:17:46;4.27;;;3.30;;
16800;SDS011;8518;53.236;10.384;2023-08-01T04:20:12;4.30;;;3.17;;
16800;SDS011;8518;53.236;10.384;2023-08-01T04:22:38;3.90;;;3.50;;
16800;SDS011;8518;53.236;10.384;2023-08-01T04:25:04;3.73;;;3.43;;
16800;SDS011;8518;53.236;10.384;2023-08-01T04:27:33;3.53;;;3.20;;
16800;SDS011;8518;53.236;10.384;2023-08-01T04:29:59;8.27;;;3.47;;
16800;SDS011;8518;53.236;10.384;2023-08-01T04:32:25;4.30;;;3.43;;
16800;SDS011;8518;53.236;10.384;2023-08-01T04:34:51;4.10;;;3.50;;
16800;SDS011;8518;53.236;10.384;2023-08-01T04:40:38;4.00;;;3.07;;
16800;SDS011;8518;53.236;10.384;2023-08-01T04:46:26;3.47;;;2.80;;
16800;SDS011;8518;53.236;10.384;2023-08-01T04:48:52;3.43;;;2.80;;
16800;SDS011;8518;53.236;10.384;2023-08-01T04:51:17;3.60;;;3.20;;
16800;SDS011;8518;53.236;10.384;2023-08-01T04:53:43;3.07;;;2.87;;
16800;SDS011;8518;53.236;10.384;2023-08-01T04:59:33;5.23;;;3.30;;
16800;SDS011;8518;53.236;10.384;2023-08-01T05:02:02;3.53;;;3.07;;
16800;SDS011;8518;53.236;10.384;2023-08-01T05:04:31;3.87;;;2.90;;
16800;SDS011;8518;53.236;10.384;2023-08-01T05:10:18;3.63;;;2.70;;
16800;SDS011;8518;53.236;10.384;2023-08-01T05:12:44;3.27;;;2.93;;
16800;SDS011;8518;53.236;10.384;2023-08-01T05:15:09;2.93;;;2.73;;
16800;SDS011;8518;53.236;10.384;2023-08-01T05:17:38;4.97;;;3.23;;
16800;SDS011;8518;53.236;10.384;2023-08-01T05:20:07;4.33;;;3.10;;
16800;SDS011;8518;53.236;10.384;2023-08-01T05:22:33;3.23;;;2.93;;
16800;SDS011;8518;53.236;10.384;2023-08-01T05:24:59;5.00;;;3.27;;
16800;SDS011;8518;53.236;10.384;2023-08-01T05:27:26;3.83;;;2.90;;
16800;SDS011;8518;53.236;10.384;2023-08-01T05:29:55;4.87;;;2.83;;
16800;SDS011;8518;53.236;10.384;2023-08-01T05:32:21;4.67;;;2.80;;
16800;SDS011;8518;53.236;10.384;2023-08-01T05:34:49;4.30;;;3.27;;
16800;SDS011;8518;53.236;10.384;2023-08-01T05:40:37;2.93;;;2.73;;
16800;SDS011;8518;53.236;10.384;2023-08-01T05:43:03;5.50;;;3.10;;
16800;SDS011;8518;53.236;10.384;2023-08-01T05:48:52;5.20;;;3.70;;
16800;SDS011;8518;53.236;10.384;2023-08-01T05:51:17;3.77;;;3.47;;
16800;SDS011;8518;53.236;10.384;2023-08-01T05:53:43;4.10;;;3.70;;
16800;SDS011;8518;53.236;10.384;2023-08-01T05:59:31;5.47;;;4.37;;
16800;SDS011;8518;53.236;10.384;2023-08-01T06:01:56;6.33;;;4.30;;
16800;SDS011;8518;53.236;10.384;2023-08-01T06:04:22;6.00;;;4.60;;
16800;SDS011;8518;53.236;10.384;2023-08-01T06:10:10;5.13;;;4.63;;
16800;SDS011;8518;53.236;10.384;2023-08-01T06:12:35;5.03;;;4.53;;
16800;SDS011;8518;53.236;10.384;2023-08-01T06:15:01;10.83;;;4.60;;
16800;SDS011;8518;53.236;10.384;2023-08-01T06:17:27;7.30;;;4.63;;
16800;SDS011;8518;53.236;10.384;2023-08-01T06:19:53;7.17;;;4.43;;
16800;SDS011;8518;53.236;10.384;2023-08-01T06:22:19;5.40;;;4.63;;
16800;SDS011;8518;53.236;10.384;2023-08-01T06:24:45;5.40;;;4.87;;
16800;SDS011;8518;53.236;10.384;2023-08-01T06:30:33;9.10;;;5.67;;
16800;SDS011;8518;53.236;10.384;2023-08-01T06:32:58;7.17;;;4.63;;
16800;SDS011;8518;53.236;10.384;2023-08-01T06:38:46;8.80;;;5.00;;
16800;SDS011;8518;53.236;10.384;2023-08-01T06:41:13;6.50;;;5.40;;
16800;SDS011;8518;53.236;10.384;2023-08-01T06:43:38;5.80;;;4.87;;
16800;SDS011;8518;53.236;10.384;2023-08-01T06:49:27;5.63;;;5.00;;
16800;SDS011;8518;53.236;10.384;2023-08-01T06:51:54;8.53;;;5.07;;
16800;SDS011;8518;53.236;10.384;2023-08-01T06:54:19;5.97;;;5.00;;
16800;SDS011;8518;53.236;10.384;2023-08-01T07:00:07;5.27;;;4.77;;
16800;SDS011;8518;53.236;10.384;2023-08-01T07:02:33;7.47;;;5.20;;
16800;SDS011;8518;53.236;10.384;2023-08-01T07:04:59;6.47;;;4.70;;
16800;SDS011;8518;53.236;10.384;2023-08-01T07:07:24;8.83;;;5.07;;
16800;SDS011;8518;53.236;10.384;2023-08-01T07:09:50;6.63;;;5.10;;
16800;SDS011;8518;53.236;10.384;2023-08-01T07:15:38;7.00;;;5.00;;
16800;SDS011;8518;53.236;10.384;2023-08-01T07:18:03;8.00;;;5.00;;
16800;SDS011;8518;53.236;10.384;2023-08-01T07:20:32;10.07;;;6.40;;
16800;SDS011;8518;53.236;10.384;2023-08-01T07:23:01;8.47;;;4.90;;
16800;SDS011;8518;53.236;10.384;2023-08-01T07:28:50;5.47;;;3.80;;
16800;SDS011;8518;53.236;10.384;2023-08-01T07:31:15;4.47;;;4.07;;
16800;SDS011;8518;53.236;10.384;2023-08-01T07:33:41;6.07;;;3.63;;
16800;SDS011;8518;53.236;10.384;2023-08-01T07:39:28;4.83;;;2.73;;
16800;SDS011;8518;53.236;10.384;2023-08-01T07:45:17;3.20;;;2.33;;
16800;SDS011;8518;53.236;10.384;2023-08-01T07:47:44;6.00;;;2.17;;
16800;SDS011;8518;53.236;10.384;2023-08-01T07:50:12;5.13;;;2.60;;
16800;SDS011;8518;53.236;10.384;2023-08-01T07:52:38;2.77;;;1.67;;
16800;SDS011;8518;53.236;10.384;2023-08-01T07:55:04;4.13;;;2.33;;
16800;SDS011;8518;53.236;10.384;2023-08-01T07:57:33;2.93;;;1.87;;
16800;SDS011;8518;53.236;10.384;2023-08-01T07:59:58;4.40;;;2.00;;
16800;SDS011;8518;53.236;10.384;2023-08-01T08:02:27;3.07;;;1.90;;
16800;SDS011;8518;53.236;10.384;2023-08-01T08:04:53;5.03;;;2.50;;
16800;SDS011;8518;53.236;10.384;2023-08-01T08:10:46;4.03;;;2.40;;
16800;SDS011;8518;53.236;10.384;2023-08-01T08:13:12;6.30;;;2.90;;
16800;SDS011;8518;53.236;10.384;2023-08-01T08:18:59;4.17;;;2.70;;
16800;SDS011;8518;53.236;10.384;2023-08-01T08:21:26;4.37;;;2.57;;
16800;SDS011;8518;53.236;10.384;2023-08-01T08:23:51;4.63;;;2.28;;
16800;SDS011;8518;53.236;10.384;2023-08-01T08:29:39;4.53;;;2.33;;
16800;SDS011;8518;53.236;10.384;2023-08-01T08:32:04;5.10;;;2.28;;
16800;SDS011;8518;53.236;10.384;2023-08-01T08:34:31;5.97;;;2.72;;
16800;SDS011;8518;53.236;10.384;2023-08-01T08:40:20;5.50;;;2.70;;
16800;SDS011;8518;53.236;10.384;2023-08-01T08:42:45;6.65;;;2.55;;
16800;SDS011;8518;53.236;10.384;2023-08-01T08:45:13;4.25;;;2.25;;
16800;SDS011;8518;53.236;10.384;2023-08-01T08:47:43;4.28;;;2.47;;
16800;SDS011;8518;53.236;10.384;2023-08-01T08:50:13;3.58;;;2.63;;
16800;SDS011;8518;53.236;10.384;2023-08-01T08:52:39;4.22;;;2.45;;
16800;SDS011;8518;53.236;10.384;2023-08-01T08:55:07;4.43;;;2.50;;
16800;SDS011;8518;53.236;10.384;2023-08-01T08:57:33;5.30;;;2.78;;
16800;SDS011;8518;53.236;10.384;2023-08-01T08:59:59;5.50;;;2.67;;
16800;SDS011;8518;53.236;10.384;2023-08-01T09:02:28;4.32;;;2.80;;
16800;SDS011;8518;53.236;10.384;2023-08-01T09:04:56;7.50;;;3.15;;
16800;SDS011;8518;53.236;10.384;2023-08-01T09:07:23;5.18;;;2.95;;
16800;SDS011;8518;53.236;10.384;2023-08-01T09:09:55;6.97;;;2.83;;
16800;SDS011;8518;53.236;10.384;2023-08-01T09:12:21;4.95;;;2.88;;
16800;SDS011;8518;53.236;10.384;2023-08-01T09:14:48;4.90;;;2.53;;
16800;SDS011;8518;53.236;10.384;2023-08-01T09:23:08;3.85;;;2.30;;
16800;SDS011;8518;53.236;10.384;2023-08-01T09:28:59;4.07;;;2.55;;
16800;SDS011;8518;53.236;10.384;2023-08-01T09:34:47;5.20;;;2.33;;
16800;SDS011;8518;53.236;10.384;2023-08-01T09:37:23;4.32;;;2.13;;
16800;SDS011;8518;53.236;10.384;2023-08-01T09:39:54;4.30;;;2.00;;
16800;SDS011;8518;53.236;10.384;2023-08-01T09:42:23;3.47;;;1.65;;
16800;SDS011;8518;53.236;10.384;2023-08-01T09:44:50;3.30;;;1.67;;
16800;SDS011;8518;53.236;10.384;2023-08-01T09:50:38;2.10;;;1.17;;
16800;SDS011;8518;53.236;10.384;2023-08-01T09:53:08;2.60;;;1.38;;
16800;SDS011;8518;53.236;10.384;2023-08-01T09:58:56;1.38;;;0.95;;
16800;SDS011;8518;53.236;10.384;2023-08-01T10:01:24;1.65;;;1.00;;
16800;SDS011;8518;53.236;10.384;2023-08-01T10:03:52;2.70;;;1.30;;
16800;SDS011;8518;53.236;10.384;2023-08-01T10:06:19;1.30;;;1.00;;
16800;SDS011;8518;53.236;10.384;2023-08-01T10:08:46;1.60;;;0.90;;
16800;SDS011;8518;53.236;10.384;2023-08-01T10:11:18;1.63;;;1.10;;
16800;SDS011;8518;53.236;10.384;2023-08-01T10:13:47;1.55;;;0.95;;
16800;SDS011;8518;53.236;10.384;2023-08-01T10:19:35;1.42;;;1.08;;
16800;SDS011;8518;53.236;10.384;2023-08-01T10:25:24;2.03;;;1.08;;
16800;SDS011;8518;53.236;10.384;2023-08-01T10:27:58;1.85;;;1.10;;
16800;SDS011;8518;53.236;10.384;2023-08-01T10:30:26;2.22;;;0.80;;
16800;SDS011;8518;53.236;10.384;2023-08-01T10:32:54;2.35;;;1.00;;
16800;SDS011;8518;53.236;10.384;2023-08-01T10:35:30;1.08;;;0.80;;
16800;SDS011;8518;53.236;10.384;2023-08-01T10:38:07;1.77;;;0.93;;
16800;SDS011;8518;53.236;10.384;2023-08-01T10:40:36;1.15;;;0.80;;
16800;SDS011;8518;53.236;10.384;2023-08-01T10:43:18;3.25;;;1.00;;
16800;SDS011;8518;53.236;10.384;2023-08-01T10:49:35;3.08;;;1.10;;
16800;SDS011;8518;53.236;10.384;2023-08-01T10:52:03;1.85;;;0.98;;
16800;SDS011;8518;53.236;10.384;2023-08-01T10:54:40;1.30;;;0.80;;
16800;SDS011;8518;53.236;10.384;2023-08-01T11:00:28;1.67;;;0.90;;
16800;SDS011;8518;53.236;10.384;2023-08-01T11:02:54;1.60;;;0.90;;
16800;SDS011;8518;53.236;10.384;2023-08-01T11:05:20;2.08;;;1.02;;
16800;SDS011;8518;53.236;10.384;2023-08-01T11:07:54;1.90;;;0.98;;
16800;SDS011;8518;53.236;10.384;2023-08-01T11:10:26;1.00;;;0.90;;
16800;SDS011;8518;53.236;10.384;2023-08-01T11:12:53;0.68;;;0.60;;
16800;SDS011;8518;53.236;10.384;2023-08-01T11:15:20;2.85;;;1.13;;
16800;SDS011;8518;53.236;10.384;2023-08-01T11:17:49;1.35;;;0.70;;
16800;SDS011;8518;53.236;10.384;2023-08-01T11:20:17;1.30;;;0.68;;
16800;SDS011;8518;53.236;10.384;2023-08-01T11:23:00;1.05;;;0.80;;
16800;SDS011;8518;53.236;10.384;2023-08-01T11:28:48;1.10;;;0.80;;
16800;SDS011;8518;53.236;10.384;2023-08-01T11:34:40;1.63;;;1.10;;
16800;SDS011;8518;53.236;10.384;2023-08-01T11:40:30;3.15;;;1.00;;
16800;SDS011;8518;53.236;10.384;2023-08-01T11:42:59;0.80;;;0.70;;
16800;SDS011;8518;53.236;10.384;2023-08-01T11:48:50;1.90;;;1.00;;
16800;SDS011;8518;53.236;10.384;2023-08-01T11:51:15;2.17;;;0.98;;
16800;SDS011;8518;53.236;10.384;2023-08-01T11:53:42;4.78;;;1.23;;
16800;SDS011;8518;53.236;10.384;2023-08-01T11:59:31;3.30;;;1.00;;
16800;SDS011;8518;53.236;10.384;2023-08-01T12:01:59;2.72;;;0.95;;
16800;SDS011;8518;53.236;10.384;2023-08-01T12:04:25;1.15;;;0.50;;
16800;SDS011;8518;53.236;10.384;2023-08-01T12:10:14;1.25;;;0.63;;
16800;SDS011;8518;53.236;10.384;2023-08-01T12:12:43;2.15;;;0.80;;
16800;SDS011;8518;53.236;10.384;2023-08-01T12:15:11;2.17;;;0.77;;
16800;SDS011;8518;53.236;10.384;2023-08-01T12:17:37;1.77;;;1.00;;
16800;SDS011;8518;53.236;10.384;2023-08-01T12:20:03;2.10;;;0.75;;
16800;SDS011;8518;53.236;10.384;2023-08-01T12:22:29;1.02;;;0.60;;
16800;SDS011;8518;53.236;10.384;2023-08-01T12:24:55;1.45;;;0.60;;
16800;SDS011;8518;53.236;10.384;2023-08-01T12:30:43;2.17;;;1.00;;
16800;SDS011;8518;53.236;10.384;2023-08-01T12:33:09;2.10;;;0.75;;
16800;SDS011;8518;53.236;10.384;2023-08-01T12:38:57;1.05;;;0.80;;
16800;SDS011;8518;53.236;10.384;2023-08-01T12:44:45;2.70;;;1.00;;
16800;SDS011;8518;53.236;10.384;2023-08-01T12:50:33;2.25;;;1.00;;
16800;SDS011;8518;53.236;10.384;2023-08-01T12:52:58;3.35;;;1.35;;
16800;SDS011;8518;53.236;10.384;2023-08-01T12:58:46;1.38;;;1.10;;
16800;SDS011;8518;53.236;10.384;2023-08-01T13:01:12;2.47;;;0.95;;
16800;SDS011;8518;53.236;10.384;2023-08-01T13:03:37;1.90;;;1.30;;
16800;SDS011;8518;53.236;10.384;2023-08-01T13:06:03;1.20;;;0.93;;
16800;SDS011;8518;53.236;10.384;2023-08-01T13:08:29;2.13;;;0.93;;
16800;SDS011;8518;53.236;10.384;2023-08-01T13:10:54;2.30;;;1.00;;
16800;SDS011;8518;53.236;10.384;2023-08-01T13:13:20;2.58;;;1.25;;
16800;SDS011;8518;53.236;10.384;2023-08-01T13:19:08;2.30;;;0.95;;
16800;SDS011;8518;53.236;10.384;2023-08-01T13:21:33;2.00;;;1.00;;
16800;SDS011;8518;53.236;10.384;2023-08-01T13:23:59;1.50;;;1.13;;
16800;SDS011;8518;53.236;10.384;2023-08-01T13:29:54;2.20;;;1.00;;
16800;SDS011;8518;53.236;10.384;2023-08-01T13:32:20;2.38;;;0.95;;
16800;SDS011;8518;53.236;10.384;2023-08-01T13:34:46;1.45;;;0.80;;
16800;SDS011;8518;53.236;10.384;2023-08-01T13:40:34;2.80;;;1.00;;
16800;SDS011;8518;53.236;10.384;2023-08-01T13:43:00;1.88;;;0.90;;
16800;SDS011;8518;53.236;10.384;2023-08-01T13:48:51;1.80;;;1.00;;
16800;SDS011;8518;53.236;10.384;2023-08-01T13:51:16;1.00;;;0.70;;
16800;SDS011;8518;53.236;10.384;2023-08-01T13:53:42;2.13;;;1.05;;
16800;SDS011;8518;53.236;10.384;2023-08-01T13:59:30;1.60;;;0.70;;
16800;SDS011;8518;53.236;10.384;2023-08-01T14:01:56;2.15;;;1.02;;
16800;SDS011;8518;53.236;10.384;2023-08-01T14:04:22;2.75;;;0.75;;
16800;SDS011;8518;53.236;10.384;2023-08-01T14:10:10;1.50;;;0.80;;
16800;SDS011;8518;53.236;10.384;2023-08-01T14:12:36;1.85;;;1.00;;
16800;SDS011;8518;53.236;10.384;2023-08-01T14:15:03;1.75;;;1.00;;
16800;SDS011;8518;53.236;10.384;2023-08-01T14:17:29;1.15;;;0.85;;
16800;SDS011;8518;53.236;10.384;2023-08-01T14:19:54;1.48;;;0.90;;
16800;SDS011;8518;53.236;10.384;2023-08-01T14:22:21;1.15;;;0.70;;
16800;SDS011;8518;53.236;10.384;2023-08-01T14:24:47;1.67;;;0.80;;
16800;SDS011;8518;53.236;10.384;2023-08-01T14:30:35;1.55;;;0.65;;
16800;SDS011;8518;53.236;10.384;2023-08-01T14:33:01;2.70;;;0.70;;
16800;SDS011;8518;53.236;10.384;2023-08-01T14:38:53;1.17;;;0.77;;
16800;SDS011;8518;53.236;10.384;2023-08-01T14:41:22;2.20;;;0.50;;
16800;SDS011;8518;53.236;10.384;2023-08-01T14:43:48;1.75;;;0.50;;
16800;SDS011;8518;53.236;10.384;2023-08-01T14:49:35;3.58;;;0.68;;
16800;SDS011;8518;53.236;10.384;2023-08-01T14:52:02;1.17;;;0.70;;
16800;SDS011;8518;53.236;10.384;2023-08-01T14:54:28;2.28;;;0.85;;
16800;SDS011;8518;53.236;10.384;2023-08-01T15:00:15;1.95;;;0.50;;
16800;SDS011;8518;53.236;10.384;2023-08-01T15:02:41;1.88;;;0.73;;
16800;SDS011;8518;53.236;10.384;2023-08-01T15:05:07;1.25;;;0.60;;
16800;SDS011;8518;53.236;10.384;2023-08-01T15:07:33;1.45;;;0.60;;
16800;SDS011;8518;53.236;10.384;2023-08-01T15:09:58;0.80;;;0.30;;
16800;SDS011;8518;53.236;10.384;2023-08-01T15:12:24;1.50;;;0.50;;
16800;SDS011;8518;53.236;10.384;2023-08-01T15:14:51;1.00;;;0.50;;
16800;SDS011;8518;53.236;10.384;2023-08-01T15:20:43;0.95;;;0.43;;
16800;SDS011;8518;53.236;10.384;2023-08-01T15:23:10;2.27;;;0.77;;
16800;SDS011;8518;53.236;10.384;2023-08-01T15:28:57;1.17;;;0.40;;
16800;SDS011;8518;53.236;10.384;2023-08-01T15:31:23;1.88;;;0.35;;
16800;SDS011;8518;53.236;10.384;2023-08-01T15:33:49;1.83;;;0.70;;
16800;SDS011;8518;53.236;10.384;2023-08-01T15:39:36;0.43;;;0.40;;
16800;SDS011;8518;53.236;10.384;2023-08-01T15:42:02;1.23;;;0.50;;
16800;SDS011;8518;53.236;10.384;2023-08-01T15:44:28;1.48;;;0.50;;
16800;SDS011;8518;53.236;10.384;2023-08-01T15:50:16;0.85;;;0.63;;
16800;SDS011;8518;53.236;10.384;2023-08-01T15:52:42;1.58;;;0.68;;
16800;SDS011;8518;53.236;10.384;2023-08-01T15:55:09;1.17;;;0.52;;
16800;SDS011;8518;53.236;10.384;2023-08-01T15:57:39;1.33;;;0.57;;
16800;SDS011;8518;53.236;10.384;2023-08-01T16:00:04;1.77;;;0.70;;
16800;SDS011;8518;53.236;10.384;2023-08-01T16:02:31;3.15;;;0.77;;
16800;SDS011;8518;53.236;10.384;2023-08-01T16:04:59;1.17;;;0.50;;
16800;SDS011;8518;53.236;10.384;2023-08-01T16:07:25;1.50;;;0.70;;
16800;SDS011;8518;53.236;10.384;2023-08-01T16:09:50;1.85;;;0.40;;
16800;SDS011;8518;53.236;10.384;2023-08-01T16:12:16;1.88;;;0.70;;
16800;SDS011;8518;53.236;10.384;2023-08-01T16:14:42;1.58;;;0.65;;
16800;SDS011;8518;53.236;10.384;2023-08-01T16:20:29;2.10;;;0.60;;
16800;SDS011;8518;53.236;10.384;2023-08-01T16:26:17;1.33;;;0.55;;
16800;SDS011;8518;53.236;10.384;2023-08-01T16:28:43;1.88;;;0.45;;
16800;SDS011;8518;53.236;10.384;2023-08-01T16:31:08;1.85;;;0.70;;
16800;SDS011;8518;53.236;10.384;2023-08-01T16:33:34;1.35;;;0.70;;
16800;SDS011;8518;53.236;10.384;2023-08-01T16:39:25;2.78;;;0.75;;
16800;SDS011;8518;53.236;10.384;2023-08-01T16:41:53;2.33;;;0.70;;
16800;SDS011;8518;53.236;10.384;2023-08-01T16:44:20;2.20;;;0.60;;
16800;SDS011;8518;53.236;10.384;2023-08-01T16:50:15;1.95;;;0.60;;
16800;SDS011;8518;53.236;10.384;2023-08-01T16:52:42;2.20;;;1.08;;
16800;SDS011;8518;53.236;10.384;2023-08-01T16:55:07;1.95;;;0.73;;
16800;SDS011;8518;53.236;10.384;2023-08-01T16:57:33;4.32;;;0.95;;
16800;SDS011;8518;53.236;10.384;2023-08-01T16:59:59;5.13;;;1.20;;
16800;SDS011;8518;53.236;10.384;2023-08-01T17:02:24;1.83;;;0.70;;
16800;SDS011;8518;53.236;10.384;2023-08-01T17:04:50;4.78;;;0.95;;
16800;SDS011;8518;53.236;10.384;2023-08-01T17:07:16;0.90;;;0.60;;
16800;SDS011;8518;53.236;10.384;2023-08-01T17:09:44;1.20;;;0.80;;
16800;SDS011;8518;53.236;10.384;2023-08-01T17:12:13;3.58;;;0.80;;
16800;SDS011;8518;53.236;10.384;2023-08-01T17:14:39;3.15;;;0.70;;
16800;SDS011;8518;53.236;10.384;2023-08-01T17:20:27;1.45;;;0.90;;
16800;SDS011;8518;53.236;10.384;2023-08-01T17:22:52;3.20;;;0.80;;
16800;SDS011;8518;53.236;10.384;2023-08-01T17:25:18;3.35;;;0.98;;
16800;SDS011;8518;53.236;10.384;2023-08-01T17:27:44;3.03;;;1.10;;
16800;SDS011;8518;53.236;10.384;2023-08-01T17:30:11;2.75;;;1.00;;
16800;SDS011;8518;53.236;10.384;2023-08-01T17:32:37;1.23;;;1.02;;
16800;SDS011;8518;53.236;10.384;2023-08-01T17:35:03;2.13;;;1.05;;
16800;SDS011;8518;53.236;10.384;2023-08-01T17:37:29;2.55;;;1.20;;
16800;SDS011;8518;53.236;10.384;2023-08-01T17:39:54;2.20;;;1.00;;
16800;SDS011;8518;53.236;10.384;2023-08-01T17:42:20;3.38;;;1.02;;
16800;SDS011;8518;53.236;10.384;2023-08-01T17:44:46;1.73;;;1.08;;
16800;SDS011;8518;53.236;10.384;2023-08-01T17:50:33;3.38;;;1.05;;
16800;SDS011;8518;53.236;10.384;2023-08-01T17:52:59;1.75;;;1.08;;
16800;SDS011;8518;53.236;10.384;2023-08-01T17:58:47;7.05;;;1.45;;
16800;SDS011;8518;53.236;10.384;2023-08-01T18:01:12;2.63;;;1.08;;
16800;SDS011;8518;53.236;10.384;2023-08-01T18:03:38;4.20;;;1.30;;
16800;SDS011;8518;53.236;10.384;2023-08-01T18:06:13;1.20;;;0.82;;
16800;SDS011;8518;53.236;10.384;2023-08-01T18:08:39;2.72;;;1.40;;
16800;SDS011;8518;53.236;10.384;2023-08-01T18:11:14;2.65;;;1.23;;
16800;SDS011;8518;53.236;10.384;2023-08-01T18:13:41;4.03;;;1.00;;
16800;SDS011;8518;53.236;10.384;2023-08-01T18:19:29;3.00;;;1.00;;
16800;SDS011;8518;53.236;10.384;2023-08-01T18:21:55;3.08;;;1.25;;
16800;SDS011;8518;53.236;10.384;2023-08-01T18:24:22;2.60;;;1.13;;
16800;SDS011;8518;53.236;10.384;2023-08-01T18:30:09;2.37;;;1.33;;
16800;SDS011;8518;53.236;10.384;2023-08-01T18:35:57;2.60;;;1.20;;
16800;SDS011;8518;53.236;10.384;2023-08-01T18:38:29;3.47;;;1.37;;
16800;SDS011;8518;53.236;10.384;2023-08-01T18:40:55;3.13;;;1.33;;
16800;SDS011;8518;53.236;10.384;2023-08-01T18:43:21;4.55;;;1.45;;
16800;SDS011;8518;53.236;10.384;2023-08-01T18:49:09;5.57;;;1.40;;
16800;SDS011;8518;53.236;10.384;2023-08-01T18:51:35;2.00;;;1.30;;
16800;SDS011;8518;53.236;10.384;2023-08-01T18:54:03;2.33;;;1.30;;
16800;SDS011;8518;53.236;10.384;2023-08-01T18:59:53;3.20;;;1.10;;
16800;SDS011;8518;53.236;10.384;2023-08-01T19:02:18;3.70;;;1.37;;
16800;SDS011;8518;53.236;10.384;2023-08-01T19:04:44;3.23;;;1.30;;
16800;SDS011;8518;53.236;10.384;2023-08-01T19:07:10;3.07;;;1.27;;
16800;SDS011;8518;53.236;10.384;2023-08-01T19:09:35;3.33;;;1.30;;
16800;SDS011;8518;53.236;10.384;2023-08-01T19:12:04;3.53;;;1.33;;
16800;SDS011;8518;53.236;10.384;2023-08-01T19:14:31;4.57;;;1.50;;
16800;SDS011;8518;53.236;10.384;2023-08-01T19:20:20;2.17;;;1.47;;
16800;SDS011;8518;53.236;10.384;2023-08-01T19:22:45;3.23;;;1.60;;
16800;SDS011;8518;53.236;10.384;2023-08-01T19:25:11;2.93;;;1.73;;
16800;SDS011;8518;53.236;10.384;2023-08-01T19:27:37;3.63;;;1.80;;
16800;SDS011;8518;53.236;10.384;2023-08-01T19:30:05;5.63;;;1.83;;